Los Angeles Regional Airport Weather

KWHP 270255Z 12006KT 10SM SKC 16/08 A3000

KAPV 191256Z AUTO 05004KT 10SM FEW075 SCT090 BKN110 18/18 A2996 RMK AO2 SLP144 T01830178 $

KAVX 270900Z AUTO 28003KT 5SM HZ OVC002 09/M01 A3002 RMK AO2 T00941006

KBFL 270854Z AUTO 34004KT 10SM CLR 17/M01 A2995 RMK AO2 SLP138 T01671006 51018

KBUR 270853Z AUTO 16006KT 10SM BKN006 12/11 A3000 RMK AO2 SLP151 T01220111 51001

KCMA 270855Z AUTO 01003KT 9SM OVC010 14/09 A3001 RMK AO2 SLP172 T01390094 55001

KCNO 270853Z AUTO 29004KT 5SM HZ CLR 12/09 A3002 RMK AO2 SLP163 T01170089 55000

KEMT 270247Z 20007KT 10SM CLR 17/09 A2997

KFUL 270853Z AUTO 00000KT 10SM OVC020 14/11 A3002 RMK AO2 SLP163 T01390111 53001

KHHR 270900Z AUTO 26004KT 10SM BKN016 13/11 A3003 RMK AO2 T01330106

KL35 270855Z AUTO 00000KT 10SM CLR 03/M05 A3013 RMK AO2

KLAX 270853Z 24010KT 10SM OVC013 13/11 A3002 RMK AO2 SLP165 T01330106 55000

KLGB 270853Z AUTO 00000KT 10SM OVC014 14/11 A3002 RMK AO2 SLP166 T01390106 55000

KONT 270853Z 26006KT 7SM FEW250 12/09 A3001 RMK AO2 SLP152 T01220094 56001

KOXR 270851Z AUTO 27004KT 10SM OVC011 13/10 A3002 RMK AO2 SLP164 T01280100 55000

KPMD 270853Z AUTO 25010KT 10SM CLR 17/M03 A2996 RMK AO2 SLP119 T01671033 58004

KPOC 270347Z 25008KT 10SM CLR 14/09 A3001 RMK LAST

KRAL 270853Z AUTO 28005KT 10SM CLR 12/10 A3001 RMK AO2 SLP150 T01220100 53000

KSMO 270851Z AUTO 22004KT 10SM OVC009 13/11 A3002 RMK AO2 SLP166 T01280106 53003

KSNA 270905Z AUTO 00000KT 9SM OVC014 14/11 A3002 RMK AO2 T01440111

KTOA 270250Z 24005KT 10SM SCT021 13/10 A2998 RMK LAST

KTRM 270852Z AUTO 31014G21KT 10SM CLR 26/06 A2974 RMK AO2 SLP073 T02560056 56005

KVNY 270906Z 13004KT 9SM SCT006 11/10 A3000 RMK AO2 T01110100

KWJF 270856Z AUTO 23015KT 10SM CLR 16/04 A2995 RMK AO2 SLP128 T01560039 56006



How to read METARs